CheckWX is a tool to help pilots better visualize weather data.  It is not intended as a substitute for an official pre-flight weather briefing.

02:19:46 UTC

KMLI METAR
Quad City International Airport
Moline, Illinois, USA
Current

28 mins ago

KMLI 270152Z 28006KT 5SM HZ OVC008 M01/M04 A2994 RMK AO2 SLP146 T10111039
Observed
Jan-27 @ 01:52 UTC
Wind
  • 280° at 6 KTS
Visibility
5 SM
Flight Rules
IFR
Conditions
Haze
Cloud Levels
  • Overcast at 800' AGL
Temperature
-1°C / 30°F
Dewpoint
-4°C / 25°F
Humidity
80%
Altimeter
29.94" Hg
Pressure
1013.92 hPa
Previous

53 mins ago

KMLI 270127Z 28009KT 5SM HZ OVC009 M01/M04 A2993 RMK AO2 T10111039
Observed
Jan-27 @ 01:27 UTC
Wind
  • 280° at 9 KTS
Visibility
5 SM
Flight Rules
IFR
Conditions
Haze
Cloud Levels
  • Overcast at 900' AGL
Temperature
-1°C / 30°F
Dewpoint
-4°C / 25°F
Humidity
80%
Altimeter
29.93" Hg
Pressure
1013.52 hPa
Previous

1 hour ago

KMLI 270052Z 28010KT 7SM OVC011 M01/M04 A2993 RMK AO2 SLP141 T10111039
Observed
Jan-27 @ 00:52 UTC
Wind
  • 280° at 10 KTS
Visibility
7 SM
Flight Rules
MVFR
Cloud Levels
  • Overcast at 1,100' AGL
Temperature
-1°C / 30°F
Dewpoint
-4°C / 25°F
Humidity
80%
Altimeter
29.93" Hg
Pressure
1013.52 hPa